sensor_id;sensor_type;location;lat;lon;timestamp;temperature;humidity
30865;DHT22;17574;49.418;11.038;2022-12-07T00:01:40;4.20;79.00
30865;DHT22;17574;49.418;11.038;2022-12-07T00:04:09;4.20;78.50
30865;DHT22;17574;49.418;11.038;2022-12-07T00:06:36;4.20;78.70
30865;DHT22;17574;49.418;11.038;2022-12-07T00:09:04;4.20;78.40
30865;DHT22;17574;49.418;11.038;2022-12-07T00:11:31;4.20;78.60
30865;DHT22;17574;49.418;11.038;2022-12-07T00:13:59;4.20;78.80
30865;DHT22;17574;49.418;11.038;2022-12-07T00:16:27;4.30;78.30
30865;DHT22;17574;49.418;11.038;2022-12-07T00:18:55;4.20;78.30
30865;DHT22;17574;49.418;11.038;2022-12-07T00:21:22;4.30;78.70
30865;DHT22;17574;49.418;11.038;2022-12-07T00:23:50;4.20;79.30
30865;DHT22;17574;49.418;11.038;2022-12-07T00:26:18;4.20;79.90
30865;DHT22;17574;49.418;11.038;2022-12-07T00:28:51;4.20;79.80
30865;DHT22;17574;49.418;11.038;2022-12-07T00:31:19;4.20;80.50
30865;DHT22;17574;49.418;11.038;2022-12-07T00:33:46;4.20;79.90
30865;DHT22;17574;49.418;11.038;2022-12-07T00:36:14;4.20;80.50
30865;DHT22;17574;49.418;11.038;2022-12-07T00:38:41;4.20;80.70
30865;DHT22;17574;49.418;11.038;2022-12-07T00:41:21;4.20;80.20
30865;DHT22;17574;49.418;11.038;2022-12-07T00:43:48;4.10;81.10
30865;DHT22;17574;49.418;11.038;2022-12-07T00:46:15;4.10;81.80
30865;DHT22;17574;49.418;11.038;2022-12-07T00:48:43;4.10;81.70
30865;DHT22;17574;49.418;11.038;2022-12-07T00:51:10;4.10;81.70
30865;DHT22;17574;49.418;11.038;2022-12-07T00:53:37;4.10;81.70
30865;DHT22;17574;49.418;11.038;2022-12-07T00:56:21;4.10;81.70
30865;DHT22;17574;49.418;11.038;2022-12-07T00:58:49;4.10;81.70
30865;DHT22;17574;49.418;11.038;2022-12-07T01:01:16;4.10;81.80
30865;DHT22;17574;49.418;11.038;2022-12-07T01:03:43;4.10;81.70
30865;DHT22;17574;49.418;11.038;2022-12-07T01:06:09;4.10;81.70
30865;DHT22;17574;49.418;11.038;2022-12-07T01:08:40;4.10;81.90
30865;DHT22;17574;49.418;11.038;2022-12-07T01:11:07;4.10;82.70
30865;DHT22;17574;49.418;11.038;2022-12-07T01:13:34;4.10;81.80
30865;DHT22;17574;49.418;11.038;2022-12-07T01:16:02;4.10;82.50
30865;DHT22;17574;49.418;11.038;2022-12-07T01:18:29;4.00;82.60
30865;DHT22;17574;49.418;11.038;2022-12-07T01:23:26;4.00;83.20
30865;DHT22;17574;49.418;11.038;2022-12-07T01:26:00;4.10;82.90
30865;DHT22;17574;49.418;11.038;2022-12-07T01:28:27;4.10;83.20
30865;DHT22;17574;49.418;11.038;2022-12-07T01:33:23;4.10;83.40
30865;DHT22;17574;49.418;11.038;2022-12-07T01:35:49;4.10;83.40
30865;DHT22;17574;49.418;11.038;2022-12-07T01:38:16;4.00;83.10
30865;DHT22;17574;49.418;11.038;2022-12-07T01:40:42;4.10;83.70
30865;DHT22;17574;49.418;11.038;2022-12-07T01:43:14;4.00;83.00
30865;DHT22;17574;49.418;11.038;2022-12-07T01:45:42;4.00;83.30
30865;DHT22;17574;49.418;11.038;2022-12-07T01:48:09;4.00;83.30
30865;DHT22;17574;49.418;11.038;2022-12-07T01:50:36;3.80;82.90
30865;DHT22;17574;49.418;11.038;2022-12-07T01:53:05;4.00;83.10
30865;DHT22;17574;49.418;11.038;2022-12-07T01:55:32;4.00;83.30
30865;DHT22;17574;49.418;11.038;2022-12-07T01:58:00;4.10;83.10
30865;DHT22;17574;49.418;11.038;2022-12-07T02:00:27;4.10;82.80
30865;DHT22;17574;49.418;11.038;2022-12-07T02:03:01;4.00;83.20
30865;DHT22;17574;49.418;11.038;2022-12-07T02:05:30;4.00;83.40
30865;DHT22;17574;49.418;11.038;2022-12-07T02:07:57;4.00;83.20
30865;DHT22;17574;49.418;11.038;2022-12-07T02:10:28;4.00;83.30
30865;DHT22;17574;49.418;11.038;2022-12-07T02:12:59;4.00;83.10
30865;DHT22;17574;49.418;11.038;2022-12-07T02:15:30;4.00;83.10
30865;DHT22;17574;49.418;11.038;2022-12-07T02:18:01;4.00;83.10
30865;DHT22;17574;49.418;11.038;2022-12-07T02:20:39;4.00;82.70
30865;DHT22;17574;49.418;11.038;2022-12-07T02:23:20;4.00;83.00
30865;DHT22;17574;49.418;11.038;2022-12-07T02:28:33;4.00;81.70
30865;DHT22;17574;49.418;11.038;2022-12-07T02:31:05;4.00;81.70
30865;DHT22;17574;49.418;11.038;2022-12-07T02:33:35;4.00;81.70
30865;DHT22;17574;49.418;11.038;2022-12-07T02:36:17;4.00;81.70
30865;DHT22;17574;49.418;11.038;2022-12-07T02:38:50;4.00;81.70
30865;DHT22;17574;49.418;11.038;2022-12-07T02:41:26;4.10;81.70
30865;DHT22;17574;49.418;11.038;2022-12-07T02:43:54;4.10;81.70
30865;DHT22;17574;49.418;11.038;2022-12-07T02:46:32;4.00;81.70
30865;DHT22;17574;49.418;11.038;2022-12-07T02:49:00;4.00;81.70
30865;DHT22;17574;49.418;11.038;2022-12-07T02:51:29;4.00;81.70
30865;DHT22;17574;49.418;11.038;2022-12-07T02:53:56;4.00;81.70
30865;DHT22;17574;49.418;11.038;2022-12-07T02:56:27;4.00;81.60
30865;DHT22;17574;49.418;11.038;2022-12-07T03:06:49;4.00;80.60
30865;DHT22;17574;49.418;11.038;2022-12-07T03:09:20;4.00;80.30
30865;DHT22;17574;49.418;11.038;2022-12-07T03:11:48;4.00;79.90
30865;DHT22;17574;49.418;11.038;2022-12-07T03:14:21;4.00;79.30
30865;DHT22;17574;49.418;11.038;2022-12-07T03:16:53;3.90;78.20
30865;DHT22;17574;49.418;11.038;2022-12-07T03:19:23;3.80;77.50
30865;DHT22;17574;49.418;11.038;2022-12-07T03:21:56;3.80;77.40
30865;DHT22;17574;49.418;11.038;2022-12-07T03:24:25;3.80;77.50
30865;DHT22;17574;49.418;11.038;2022-12-07T03:26:54;3.80;76.90
30865;DHT22;17574;49.418;11.038;2022-12-07T03:29:23;3.70;76.80
30865;DHT22;17574;49.418;11.038;2022-12-07T03:31:54;3.70;77.40
30865;DHT22;17574;49.418;11.038;2022-12-07T03:34:24;3.70;77.50
30865;DHT22;17574;49.418;11.038;2022-12-07T03:36:55;3.70;78.20
30865;DHT22;17574;49.418;11.038;2022-12-07T03:42:02;3.60;78.60
30865;DHT22;17574;49.418;11.038;2022-12-07T03:44:31;3.60;78.30
30865;DHT22;17574;49.418;11.038;2022-12-07T03:47:00;3.70;78.00
30865;DHT22;17574;49.418;11.038;2022-12-07T03:49:32;3.60;78.60
30865;DHT22;17574;49.418;11.038;2022-12-07T03:54:31;3.60;79.00
30865;DHT22;17574;49.418;11.038;2022-12-07T03:56:59;3.60;78.20
30865;DHT22;17574;49.418;11.038;2022-12-07T03:59:27;3.60;77.30
30865;DHT22;17574;49.418;11.038;2022-12-07T04:01:55;3.50;77.20
30865;DHT22;17574;49.418;11.038;2022-12-07T04:04:23;3.50;76.40
30865;DHT22;17574;49.418;11.038;2022-12-07T04:06:49;3.00;75.30
30865;DHT22;17574;49.418;11.038;2022-12-07T04:09:16;3.50;75.80
30865;DHT22;17574;49.418;11.038;2022-12-07T04:11:43;3.40;76.10
30865;DHT22;17574;49.418;11.038;2022-12-07T04:14:09;3.40;75.30
30865;DHT22;17574;49.418;11.038;2022-12-07T04:19:15;3.30;72.90
30865;DHT22;17574;49.418;11.038;2022-12-07T04:21:42;3.30;72.90
30865;DHT22;17574;49.418;11.038;2022-12-07T04:24:09;3.10;72.70
30865;DHT22;17574;49.418;11.038;2022-12-07T04:26:36;3.10;74.10
30865;DHT22;17574;49.418;11.038;2022-12-07T04:29:02;3.10;75.80
30865;DHT22;17574;49.418;11.038;2022-12-07T04:31:33;3.10;75.10
30865;DHT22;17574;49.418;11.038;2022-12-07T04:34:00;3.20;75.00
30865;DHT22;17574;49.418;11.038;2022-12-07T04:36:27;3.00;75.80
30865;DHT22;17574;49.418;11.038;2022-12-07T04:38:54;3.00;76.80
30865;DHT22;17574;49.418;11.038;2022-12-07T04:41:21;3.00;76.80
30865;DHT22;17574;49.418;11.038;2022-12-07T04:43:58;3.00;77.40
30865;DHT22;17574;49.418;11.038;2022-12-07T04:46:26;2.90;78.20
30865;DHT22;17574;49.418;11.038;2022-12-07T04:48:53;2.90;79.30
30865;DHT22;17574;49.418;11.038;2022-12-07T04:51:21;2.80;80.70
30865;DHT22;17574;49.418;11.038;2022-12-07T04:53:49;2.90;82.10
30865;DHT22;17574;49.418;11.038;2022-12-07T04:56:15;3.00;82.70
30865;DHT22;17574;49.418;11.038;2022-12-07T04:58:43;2.80;83.20
30865;DHT22;17574;49.418;11.038;2022-12-07T05:01:10;2.80;84.40
30865;DHT22;17574;49.418;11.038;2022-12-07T05:03:37;2.90;84.10
30865;DHT22;17574;49.418;11.038;2022-12-07T05:06:04;2.80;84.10
30865;DHT22;17574;49.418;11.038;2022-12-07T05:08:38;2.80;84.60
30865;DHT22;17574;49.418;11.038;2022-12-07T05:11:05;2.90;85.00
30865;DHT22;17574;49.418;11.038;2022-12-07T05:13:32;2.80;85.50
30865;DHT22;17574;49.418;11.038;2022-12-07T05:15:58;2.80;85.60
30865;DHT22;17574;49.418;11.038;2022-12-07T05:18:25;2.80;86.00
30865;DHT22;17574;49.418;11.038;2022-12-07T05:20:51;2.90;86.60
30865;DHT22;17574;49.418;11.038;2022-12-07T05:23:18;2.90;86.70
30865;DHT22;17574;49.418;11.038;2022-12-07T05:25:46;2.90;86.70
30865;DHT22;17574;49.418;11.038;2022-12-07T05:28:12;3.00;85.80
30865;DHT22;17574;49.418;11.038;2022-12-07T05:30:39;2.90;85.60
30865;DHT22;17574;49.418;11.038;2022-12-07T05:33:05;2.90;84.70
30865;DHT22;17574;49.418;11.038;2022-12-07T05:35:32;2.90;84.80
30865;DHT22;17574;49.418;11.038;2022-12-07T05:37:58;2.90;85.30
30865;DHT22;17574;49.418;11.038;2022-12-07T05:40:25;3.00;84.90
30865;DHT22;17574;49.418;11.038;2022-12-07T05:42:51;3.10;84.90
30865;DHT22;17574;49.418;11.038;2022-12-07T05:45:18;3.00;84.80
30865;DHT22;17574;49.418;11.038;2022-12-07T05:47:45;3.00;84.30
30865;DHT22;17574;49.418;11.038;2022-12-07T05:50:11;3.10;84.00
30865;DHT22;17574;49.418;11.038;2022-12-07T05:52:38;3.10;83.00
30865;DHT22;17574;49.418;11.038;2022-12-07T05:55:04;3.10;82.30
30865;DHT22;17574;49.418;11.038;2022-12-07T05:57:33;3.10;82.50
30865;DHT22;17574;49.418;11.038;2022-12-07T05:59:59;3.10;81.70
30865;DHT22;17574;49.418;11.038;2022-12-07T06:02:27;3.20;81.00
30865;DHT22;17574;49.418;11.038;2022-12-07T06:04:53;3.20;81.00
30865;DHT22;17574;49.418;11.038;2022-12-07T06:07:20;3.20;81.00
30865;DHT22;17574;49.418;11.038;2022-12-07T06:09:46;3.30;81.10
30865;DHT22;17574;49.418;11.038;2022-12-07T06:12:13;3.20;80.60
30865;DHT22;17574;49.418;11.038;2022-12-07T06:14:58;3.20;79.80
30865;DHT22;17574;49.418;11.038;2022-12-07T06:17:25;3.20;79.80
30865;DHT22;17574;49.418;11.038;2022-12-07T06:19:51;3.20;78.90
30865;DHT22;17574;49.418;11.038;2022-12-07T06:22:18;3.30;78.70
30865;DHT22;17574;49.418;11.038;2022-12-07T06:24:45;3.30;78.40
30865;DHT22;17574;49.418;11.038;2022-12-07T06:27:11;3.40;78.30
30865;DHT22;17574;49.418;11.038;2022-12-07T06:29:38;3.30;77.70
30865;DHT22;17574;49.418;11.038;2022-12-07T06:32:04;3.30;77.00
30865;DHT22;17574;49.418;11.038;2022-12-07T06:34:31;3.30;77.10
30865;DHT22;17574;49.418;11.038;2022-12-07T06:36:58;3.30;77.00
30865;DHT22;17574;49.418;11.038;2022-12-07T06:39:25;3.40;77.10
30865;DHT22;17574;49.418;11.038;2022-12-07T06:41:52;3.40;76.30
30865;DHT22;17574;49.418;11.038;2022-12-07T06:44:20;3.30;75.30
30865;DHT22;17574;49.418;11.038;2022-12-07T06:46:48;3.40;75.20
30865;DHT22;17574;49.418;11.038;2022-12-07T06:49:14;3.40;74.90
30865;DHT22;17574;49.418;11.038;2022-12-07T06:51:41;3.40;74.70
30865;DHT22;17574;49.418;11.038;2022-12-07T06:54:09;3.40;75.00
30865;DHT22;17574;49.418;11.038;2022-12-07T06:56:35;3.40;74.70
30865;DHT22;17574;49.418;11.038;2022-12-07T06:59:02;3.40;74.90
30865;DHT22;17574;49.418;11.038;2022-12-07T07:01:29;3.40;75.10
30865;DHT22;17574;49.418;11.038;2022-12-07T07:03:56;3.40;73.00
30865;DHT22;17574;49.418;11.038;2022-12-07T07:06:23;3.40;73.60
30865;DHT22;17574;49.418;11.038;2022-12-07T07:08:49;3.40;73.00
30865;DHT22;17574;49.418;11.038;2022-12-07T07:11:16;3.40;73.00
30865;DHT22;17574;49.418;11.038;2022-12-07T07:13:44;3.50;73.10
30865;DHT22;17574;49.418;11.038;2022-12-07T07:16:10;3.50;73.10
30865;DHT22;17574;49.418;11.038;2022-12-07T07:18:37;3.50;73.10
30865;DHT22;17574;49.418;11.038;2022-12-07T07:21:04;3.50;73.10
30865;DHT22;17574;49.418;11.038;2022-12-07T07:23:30;3.50;73.10
30865;DHT22;17574;49.418;11.038;2022-12-07T07:25:57;3.60;73.20
30865;DHT22;17574;49.418;11.038;2022-12-07T07:28:23;3.60;73.20
30865;DHT22;17574;49.418;11.038;2022-12-07T07:30:50;3.60;71.70
30865;DHT22;17574;49.418;11.038;2022-12-07T07:33:17;3.60;71.20
30865;DHT22;17574;49.418;11.038;2022-12-07T07:35:44;3.70;71.80
30865;DHT22;17574;49.418;11.038;2022-12-07T07:38:10;3.70;71.80
30865;DHT22;17574;49.418;11.038;2022-12-07T07:40:37;3.70;72.00
30865;DHT22;17574;49.418;11.038;2022-12-07T07:43:03;3.70;71.60
30865;DHT22;17574;49.418;11.038;2022-12-07T07:45:30;3.80;71.60
30865;DHT22;17574;49.418;11.038;2022-12-07T07:47:57;3.80;71.70
30865;DHT22;17574;49.418;11.038;2022-12-07T07:50:23;3.90;71.70
30865;DHT22;17574;49.418;11.038;2022-12-07T07:52:50;3.90;71.90
30865;DHT22;17574;49.418;11.038;2022-12-07T07:55:17;4.50;72.00
30865;DHT22;17574;49.418;11.038;2022-12-07T07:57:44;4.00;70.10
30865;DHT22;17574;49.418;11.038;2022-12-07T08:00:18;4.20;69.80
30865;DHT22;17574;49.418;11.038;2022-12-07T08:02:45;4.10;69.40
30865;DHT22;17574;49.418;11.038;2022-12-07T08:05:12;4.10;69.40
30865;DHT22;17574;49.418;11.038;2022-12-07T08:07:39;4.20;69.10
30865;DHT22;17574;49.418;11.038;2022-12-07T08:10:06;4.20;68.10
30865;DHT22;17574;49.418;11.038;2022-12-07T08:12:37;4.30;68.80
30865;DHT22;17574;49.418;11.038;2022-12-07T08:15:04;4.30;68.10
30865;DHT22;17574;49.418;11.038;2022-12-07T08:17:30;4.40;67.60
30865;DHT22;17574;49.418;11.038;2022-12-07T08:19:57;4.40;66.40
30865;DHT22;17574;49.418;11.038;2022-12-07T08:22:23;4.40;65.40
30865;DHT22;17574;49.418;11.038;2022-12-07T08:24:50;4.50;65.40
30865;DHT22;17574;49.418;11.038;2022-12-07T08:27:16;4.50;65.40
30865;DHT22;17574;49.418;11.038;2022-12-07T08:29:43;4.50;65.40
30865;DHT22;17574;49.418;11.038;2022-12-07T08:32:09;4.50;65.90
30865;DHT22;17574;49.418;11.038;2022-12-07T08:34:36;4.50;65.40
30865;DHT22;17574;49.418;11.038;2022-12-07T08:37:03;4.60;64.90
30865;DHT22;17574;49.418;11.038;2022-12-07T08:39:30;4.60;62.30
30865;DHT22;17574;49.418;11.038;2022-12-07T08:41:58;4.60;62.20
30865;DHT22;17574;49.418;11.038;2022-12-07T08:44:24;4.60;62.10
30865;DHT22;17574;49.418;11.038;2022-12-07T08:46:52;4.60;61.10
30865;DHT22;17574;49.418;11.038;2022-12-07T08:49:22;4.70;62.00
30865;DHT22;17574;49.418;11.038;2022-12-07T08:51:50;4.70;60.50
30865;DHT22;17574;49.418;11.038;2022-12-07T08:54:17;4.70;60.80
30865;DHT22;17574;49.418;11.038;2022-12-07T08:56:45;4.70;60.50
30865;DHT22;17574;49.418;11.038;2022-12-07T08:59:12;4.80;59.60
30865;DHT22;17574;49.418;11.038;2022-12-07T09:01:40;4.90;60.50
30865;DHT22;17574;49.418;11.038;2022-12-07T09:04:06;4.90;59.00
30865;DHT22;17574;49.418;11.038;2022-12-07T09:06:33;5.00;57.30
30865;DHT22;17574;49.418;11.038;2022-12-07T09:09:00;5.00;56.60
30865;DHT22;17574;49.418;11.038;2022-12-07T09:11:27;5.10;56.70
30865;DHT22;17574;49.418;11.038;2022-12-07T09:13:54;5.20;54.10
30865;DHT22;17574;49.418;11.038;2022-12-07T09:16:21;5.20;53.10
30865;DHT22;17574;49.418;11.038;2022-12-07T09:18:48;5.30;53.70
30865;DHT22;17574;49.418;11.038;2022-12-07T09:21:15;5.30;52.60
30865;DHT22;17574;49.418;11.038;2022-12-07T09:23:41;5.30;54.10
30865;DHT22;17574;49.418;11.038;2022-12-07T09:26:09;5.40;56.00
30865;DHT22;17574;49.418;11.038;2022-12-07T09:28:36;5.40;59.00
30865;DHT22;17574;49.418;11.038;2022-12-07T09:31:03;5.40;60.00
30865;DHT22;17574;49.418;11.038;2022-12-07T09:33:56;5.00;56.70
30865;DHT22;17574;49.418;11.038;2022-12-07T09:36:23;5.40;57.00
30865;DHT22;17574;49.418;11.038;2022-12-07T09:38:50;5.30;56.90
30865;DHT22;17574;49.418;11.038;2022-12-07T09:41:17;5.40;57.00
30865;DHT22;17574;49.418;11.038;2022-12-07T09:43:44;5.40;57.00
30865;DHT22;17574;49.418;11.038;2022-12-07T09:46:13;5.40;59.90
30865;DHT22;17574;49.418;11.038;2022-12-07T09:48:41;5.40;60.10
30865;DHT22;17574;49.418;11.038;2022-12-07T09:51:13;5.40;58.80
30865;DHT22;17574;49.418;11.038;2022-12-07T09:53:48;5.40;60.80
30865;DHT22;17574;49.418;11.038;2022-12-07T09:56:15;5.30;61.50
30865;DHT22;17574;49.418;11.038;2022-12-07T09:58:43;5.30;62.50
30865;DHT22;17574;49.418;11.038;2022-12-07T10:01:14;5.20;63.30
30865;DHT22;17574;49.418;11.038;2022-12-07T10:03:43;5.30;64.50
30865;DHT22;17574;49.418;11.038;2022-12-07T10:06:11;5.40;64.20
30865;DHT22;17574;49.418;11.038;2022-12-07T10:08:38;5.20;63.90
30865;DHT22;17574;49.418;11.038;2022-12-07T10:11:07;5.50;64.00
30865;DHT22;17574;49.418;11.038;2022-12-07T10:13:38;5.30;63.30
30865;DHT22;17574;49.418;11.038;2022-12-07T10:16:05;5.30;66.10
30865;DHT22;17574;49.418;11.038;2022-12-07T10:18:36;5.30;64.10
30865;DHT22;17574;49.418;11.038;2022-12-07T10:23:30;5.30;64.40
30865;DHT22;17574;49.418;11.038;2022-12-07T10:25:56;5.30;64.60
30865;DHT22;17574;49.418;11.038;2022-12-07T10:28:27;5.40;62.40
30865;DHT22;17574;49.418;11.038;2022-12-07T10:31:17;5.40;61.50
30865;DHT22;17574;49.418;11.038;2022-12-07T10:33:49;5.40;61.60
30865;DHT22;17574;49.418;11.038;2022-12-07T10:38:44;5.50;58.70
30865;DHT22;17574;49.418;11.038;2022-12-07T10:41:11;5.60;60.00
30865;DHT22;17574;49.418;11.038;2022-12-07T10:43:38;5.60;58.90
30865;DHT22;17574;49.418;11.038;2022-12-07T10:54:16;6.00;53.80
30865;DHT22;17574;49.418;11.038;2022-12-07T10:56:48;6.00;53.10
30865;DHT22;17574;49.418;11.038;2022-12-07T11:01:51;6.10;51.40
30865;DHT22;17574;49.418;11.038;2022-12-07T11:07:38;6.10;50.90
30865;DHT22;17574;49.418;11.038;2022-12-07T11:09:47;6.10;50.40
30865;DHT22;17574;49.418;11.038;2022-12-07T11:12:47;6.20;50.90
30865;DHT22;17574;49.418;11.038;2022-12-07T11:25:32;6.20;54.20
30865;DHT22;17574;49.418;11.038;2022-12-07T11:33:22;6.40;52.70
30865;DHT22;17574;49.418;11.038;2022-12-07T11:36:40;6.50;51.50
30865;DHT22;17574;49.418;11.038;2022-12-07T11:38:43;6.50;51.90
30865;DHT22;17574;49.418;11.038;2022-12-07T11:41:10;6.60;47.80
30865;DHT22;17574;49.418;11.038;2022-12-07T11:46:27;6.60;47.70
30865;DHT22;17574;49.418;11.038;2022-12-07T11:49:01;6.70;47.70
30865;DHT22;17574;49.418;11.038;2022-12-07T11:51:28;6.60;46.40
30865;DHT22;17574;49.418;11.038;2022-12-07T11:54:01;6.70;47.70
30865;DHT22;17574;49.418;11.038;2022-12-07T11:56:29;6.60;47.60
30865;DHT22;17574;49.418;11.038;2022-12-07T11:58:57;6.60;47.70
30865;DHT22;17574;49.418;11.038;2022-12-07T12:06:32;6.40;48.30
30865;DHT22;17574;49.418;11.038;2022-12-07T12:09:17;6.40;47.40
30865;DHT22;17574;49.418;11.038;2022-12-07T12:14:55;6.50;47.50
30865;DHT22;17574;49.418;11.038;2022-12-07T12:19:59;6.60;47.60
30865;DHT22;17574;49.418;11.038;2022-12-07T12:22:32;6.60;47.70
30865;DHT22;17574;49.418;11.038;2022-12-07T12:24:59;6.70;47.70
30865;DHT22;17574;49.418;11.038;2022-12-07T12:27:27;6.70;45.20
30865;DHT22;17574;49.418;11.038;2022-12-07T12:29:57;6.80;43.80
30865;DHT22;17574;49.418;11.038;2022-12-07T12:32:37;6.90;42.50
30865;DHT22;17574;49.418;11.038;2022-12-07T12:38:29;6.90;40.90
30865;DHT22;17574;49.418;11.038;2022-12-07T12:40:56;6.80;41.20
30865;DHT22;17574;49.418;11.038;2022-12-07T12:43:42;6.80;41.40
30865;DHT22;17574;49.418;11.038;2022-12-07T12:49:14;6.80;45.60
30865;DHT22;17574;49.418;11.038;2022-12-07T12:52:00;6.50;44.60
30865;DHT22;17574;49.418;11.038;2022-12-07T12:54:30;6.40;46.70
30865;DHT22;17574;49.418;11.038;2022-12-07T12:57:17;6.50;46.50
30865;DHT22;17574;49.418;11.038;2022-12-07T13:02:29;6.40;45.70
30865;DHT22;17574;49.418;11.038;2022-12-07T13:05:16;6.40;47.40
30865;DHT22;17574;49.418;11.038;2022-12-07T13:13:25;6.30;48.60
30865;DHT22;17574;49.418;11.038;2022-12-07T13:15:56;6.20;47.90
30865;DHT22;17574;49.418;11.038;2022-12-07T13:18:41;6.20;48.00
30865;DHT22;17574;49.418;11.038;2022-12-07T13:29:15;6.20;63.40
30865;DHT22;17574;49.418;11.038;2022-12-07T13:31:43;6.20;53.40
30865;DHT22;17574;49.418;11.038;2022-12-07T13:39:45;6.00;54.40
30865;DHT22;17574;49.418;11.038;2022-12-07T13:42:20;6.00;55.10
30865;DHT22;17574;49.418;11.038;2022-12-07T13:44:48;5.90;55.40
30865;DHT22;17574;49.418;11.038;2022-12-07T13:47:16;5.80;57.30
30865;DHT22;17574;49.418;11.038;2022-12-07T13:49:51;5.80;57.40
30865;DHT22;17574;49.418;11.038;2022-12-07T13:52:24;5.80;58.10
30865;DHT22;17574;49.418;11.038;2022-12-07T13:54:58;5.80;59.80
30865;DHT22;17574;49.418;11.038;2022-12-07T13:57:25;5.80;59.00
30865;DHT22;17574;49.418;11.038;2022-12-07T13:59:52;5.70;59.10
30865;DHT22;17574;49.418;11.038;2022-12-07T14:02:30;5.70;59.40
30865;DHT22;17574;49.418;11.038;2022-12-07T14:05:35;5.60;60.70
30865;DHT22;17574;49.418;11.038;2022-12-07T14:07:54;5.60;62.00
30865;DHT22;17574;49.418;11.038;2022-12-07T14:10:23;5.70;60.40
30865;DHT22;17574;49.418;11.038;2022-12-07T14:12:50;5.70;60.20
30865;DHT22;17574;49.418;11.038;2022-12-07T14:15:21;5.70;61.20
30865;DHT22;17574;49.418;11.038;2022-12-07T14:17:51;5.60;60.70
30865;DHT22;17574;49.418;11.038;2022-12-07T14:20:28;5.60;61.40
30865;DHT22;17574;49.418;11.038;2022-12-07T14:22:55;5.60;60.90
30865;DHT22;17574;49.418;11.038;2022-12-07T14:25:23;5.70;60.20
30865;DHT22;17574;49.418;11.038;2022-12-07T14:28:00;5.70;60.60
30865;DHT22;17574;49.418;11.038;2022-12-07T14:32:55;5.70;58.50
30865;DHT22;17574;49.418;11.038;2022-12-07T14:35:23;5.70;58.80
30865;DHT22;17574;49.418;11.038;2022-12-07T14:37:49;5.70;57.40
30865;DHT22;17574;49.418;11.038;2022-12-07T14:40:20;5.60;59.30
30865;DHT22;17574;49.418;11.038;2022-12-07T14:42:49;5.60;60.00
30865;DHT22;17574;49.418;11.038;2022-12-07T14:45:17;5.60;59.80
30865;DHT22;17574;49.418;11.038;2022-12-07T14:47:44;5.50;59.70
30865;DHT22;17574;49.418;11.038;2022-12-07T14:50:33;5.50;59.20
30865;DHT22;17574;49.418;11.038;2022-12-07T14:53:02;5.50;60.40
30865;DHT22;17574;49.418;11.038;2022-12-07T14:55:50;5.50;60.50
30865;DHT22;17574;49.418;11.038;2022-12-07T14:58:17;5.50;59.10
30865;DHT22;17574;49.418;11.038;2022-12-07T15:00:44;5.50;59.90
30865;DHT22;17574;49.418;11.038;2022-12-07T15:03:10;5.50;60.20
30865;DHT22;17574;49.418;11.038;2022-12-07T15:05:37;5.40;59.80
30865;DHT22;17574;49.418;11.038;2022-12-07T15:08:04;5.40;60.80
30865;DHT22;17574;49.418;11.038;2022-12-07T15:10:32;5.40;61.00
30865;DHT22;17574;49.418;11.038;2022-12-07T15:13:00;5.40;60.00
30865;DHT22;17574;49.418;11.038;2022-12-07T15:15:47;5.30;60.40
30865;DHT22;17574;49.418;11.038;2022-12-07T15:18:14;5.30;60.20
30865;DHT22;17574;49.418;11.038;2022-12-07T15:20:41;5.30;60.30
30865;DHT22;17574;49.418;11.038;2022-12-07T15:23:07;5.30;61.00
30865;DHT22;17574;49.418;11.038;2022-12-07T15:25:34;5.20;60.60
30865;DHT22;17574;49.418;11.038;2022-12-07T15:28:00;5.20;59.80
30865;DHT22;17574;49.418;11.038;2022-12-07T15:30:27;5.20;60.00
30865;DHT22;17574;49.418;11.038;2022-12-07T15:32:53;5.20;60.30
30865;DHT22;17574;49.418;11.038;2022-12-07T15:35:20;5.20;60.60
30865;DHT22;17574;49.418;11.038;2022-12-07T15:37:47;5.20;60.10
30865;DHT22;17574;49.418;11.038;2022-12-07T15:40:14;5.10;60.10
30865;DHT22;17574;49.418;11.038;2022-12-07T15:42:40;5.10;61.20
30865;DHT22;17574;49.418;11.038;2022-12-07T15:45:07;5.10;61.50
30865;DHT22;17574;49.418;11.038;2022-12-07T15:47:36;5.10;61.80
30865;DHT22;17574;49.418;11.038;2022-12-07T15:50:23;5.10;62.10
30865;DHT22;17574;49.418;11.038;2022-12-07T15:52:50;5.10;63.00
30865;DHT22;17574;49.418;11.038;2022-12-07T15:55:16;5.10;61.80
30865;DHT22;17574;49.418;11.038;2022-12-07T15:57:43;5.00;61.60
30865;DHT22;17574;49.418;11.038;2022-12-07T16:00:09;5.10;62.60
30865;DHT22;17574;49.418;11.038;2022-12-07T16:02:36;5.00;62.90
30865;DHT22;17574;49.418;11.038;2022-12-07T16:05:05;5.00;64.50
30865;DHT22;17574;49.418;11.038;2022-12-07T16:07:32;5.00;64.60
30865;DHT22;17574;49.418;11.038;2022-12-07T16:09:58;5.00;65.80
30865;DHT22;17574;49.418;11.038;2022-12-07T16:12:25;5.00;65.70
30865;DHT22;17574;49.418;11.038;2022-12-07T16:14:52;5.00;64.50
30865;DHT22;17574;49.418;11.038;2022-12-07T16:17:18;5.00;65.70
30865;DHT22;17574;49.418;11.038;2022-12-07T16:19:45;5.00;65.80
30865;DHT22;17574;49.418;11.038;2022-12-07T16:22:11;5.00;65.80
30865;DHT22;17574;49.418;11.038;2022-12-07T16:24:38;5.00;65.80
30865;DHT22;17574;49.418;11.038;2022-12-07T16:27:04;5.00;65.80
30865;DHT22;17574;49.418;11.038;2022-12-07T16:29:31;5.00;65.90
30865;DHT22;17574;49.418;11.038;2022-12-07T16:31:57;4.90;69.30
30865;DHT22;17574;49.418;11.038;2022-12-07T16:34:24;4.90;70.90
30865;DHT22;17574;49.418;11.038;2022-12-07T16:36:51;4.80;71.50
30865;DHT22;17574;49.418;11.038;2022-12-07T16:39:29;4.80;74.10
30865;DHT22;17574;49.418;11.038;2022-12-07T16:41:56;4.70;74.10
30865;DHT22;17574;49.418;11.038;2022-12-07T16:44:23;4.70;75.10
30865;DHT22;17574;49.418;11.038;2022-12-07T16:46:50;4.70;75.70
30865;DHT22;17574;49.418;11.038;2022-12-07T16:49:17;4.70;75.90
30865;DHT22;17574;49.418;11.038;2022-12-07T16:51:44;4.70;76.70
30865;DHT22;17574;49.418;11.038;2022-12-07T16:54:12;4.70;76.60
30865;DHT22;17574;49.418;11.038;2022-12-07T16:56:39;4.60;76.50
30865;DHT22;17574;49.418;11.038;2022-12-07T16:59:06;4.60;77.60
30865;DHT22;17574;49.418;11.038;2022-12-07T17:01:32;4.60;77.60
30865;DHT22;17574;49.418;11.038;2022-12-07T17:04:00;4.70;78.00
30865;DHT22;17574;49.418;11.038;2022-12-07T17:06:28;4.60;77.40
30865;DHT22;17574;49.418;11.038;2022-12-07T17:08:55;4.60;76.50
30865;DHT22;17574;49.418;11.038;2022-12-07T17:11:26;4.60;77.40
30865;DHT22;17574;49.418;11.038;2022-12-07T17:13:53;4.60;77.00
30865;DHT22;17574;49.418;11.038;2022-12-07T17:16:39;4.70;77.40
30865;DHT22;17574;49.418;11.038;2022-12-07T17:19:07;4.60;77.50
30865;DHT22;17574;49.418;11.038;2022-12-07T17:21:33;4.50;78.00
30865;DHT22;17574;49.418;11.038;2022-12-07T17:24:01;4.70;91.90